Hauptseite
METAR-TAF:

METAR-TAF

Flughäfen :

Leeming, England

RAF Leeming

Breite: 54-18N, Länge: 001-32W, Höhe: 40 m

Beobachtung

Neuester Wetterbericht von vor 1 Stunde und 21 Minuten, um 22:50 UTC
Wind 6 kt aus Südost
Temperatur 4°C
Luftfeuchtigkeit 87%
Luftdruck 1018 hPa
Sichtweite 10 km oder mehr
Leichtregen

METAR: EGXE 192250Z AUTO 14006KT 9999 -RA BKN024/// BKN031/// 04/02 Q1018

Zeit: 00:11 (00:11 UTC)


TAF: fehlend

Wetterbeobachtungen und Prognosen von mehr als 4000 Flughäfen (METAR und TAF Bericht).

Die verfügbaren Stationen werden durch gelbe und rote Markierungen auf der Karte dargestellt.

Führen Sie die Maus auf sie, um den Namen der Station zu sehen.

Darauf klicken, um die Beobachtung von Wetterbeobachtungen und Prognosen zu sehen.

Um die Karte zu ändern : klicken Sie auf den grünen Tasten mit einem schwarzen Kreuz Zum Vergrößern, auf den grünen Button mit einem Gedankenstrich zu verkleinern, oder auf die grünen Pfeile für benachbarte Karten.


METAR-TAF: